sensor_id;sensor_type;location;lat;lon;timestamp;pressure;altitude;pressure_sealevel;temperature;humidity
74635;BME280;63140;56.306;43.984;2022-12-20T00:00:17;99933.16;;;-6.37;85.77
74635;BME280;63140;56.306;43.984;2022-12-20T00:02:43;99937.03;;;-6.35;85.23
74635;BME280;63140;56.306;43.984;2022-12-20T00:05:09;99940.13;;;-6.38;85.10
74635;BME280;63140;56.306;43.984;2022-12-20T00:07:35;99938.81;;;-6.35;86.76
74635;BME280;63140;56.306;43.984;2022-12-20T00:10:01;99941.94;;;-6.28;86.03
74635;BME280;63140;56.306;43.984;2022-12-20T00:12:29;99939.34;;;-6.33;86.57
74635;BME280;63140;56.306;43.984;2022-12-20T00:14:54;99935.72;;;-6.32;85.89
74635;BME280;63140;56.306;43.984;2022-12-20T00:17:20;99940.63;;;-6.26;86.20
74635;BME280;63140;56.306;43.984;2022-12-20T00:19:46;99937.53;;;-6.28;86.60
74635;BME280;63140;56.306;43.984;2022-12-20T00:22:12;99940.88;;;-6.42;87.06
74635;BME280;63140;56.306;43.984;2022-12-20T00:24:38;99933.16;;;-6.37;87.21
74635;BME280;63140;56.306;43.984;2022-12-20T00:27:04;99937.53;;;-6.28;86.96
74635;BME280;63140;56.306;43.984;2022-12-20T00:29:30;99938.81;;;-6.30;87.64
74635;BME280;63140;56.306;43.984;2022-12-20T00:31:56;99933.66;;;-6.30;87.28
74635;BME280;63140;56.306;43.984;2022-12-20T00:34:21;99922.28;;;-6.24;87.43
74635;BME280;63140;56.306;43.984;2022-12-20T00:36:47;99934.19;;;-6.28;87.61
74635;BME280;63140;56.306;43.984;2022-12-20T00:39:13;99931.84;;;-6.19;87.63
74635;BME280;63140;56.306;43.984;2022-12-20T00:41:39;99929.00;;;-6.18;87.83
74635;BME280;63140;56.306;43.984;2022-12-20T00:44:04;99922.28;;;-6.14;88.25
74635;BME280;63140;56.306;43.984;2022-12-20T00:46:30;99934.66;;;-6.11;87.85
74635;BME280;63140;56.306;43.984;2022-12-20T00:48:58;99931.56;;;-6.08;87.74
74635;BME280;63140;56.306;43.984;2022-12-20T00:51:26;99942.16;;;-6.04;87.44
74635;BME280;63140;56.306;43.984;2022-12-20T00:53:53;99945.22;;;-5.92;88.04
74635;BME280;63140;56.306;43.984;2022-12-20T00:56:19;99937.19;;;-5.90;87.58
74635;BME280;63140;56.306;43.984;2022-12-20T00:58:45;99928.66;;;-5.91;87.59
74635;BME280;63140;56.306;43.984;2022-12-20T01:01:18;99933.81;;;-5.81;87.55
74635;BME280;63140;56.306;43.984;2022-12-20T01:03:47;99930.19;;;-5.74;87.62
74635;BME280;63140;56.306;43.984;2022-12-20T01:06:13;99927.34;;;-5.73;87.99
74635;BME280;63140;56.306;43.984;2022-12-20T01:08:39;99925.25;;;-5.66;87.55
74635;BME280;63140;56.306;43.984;2022-12-20T01:11:07;99927.81;;;-5.56;87.30
74635;BME280;63140;56.306;43.984;2022-12-20T01:13:35;99938.66;;;-5.48;87.07
74635;BME280;63140;56.306;43.984;2022-12-20T01:16:12;99918.69;;;-5.38;86.70
74635;BME280;63140;56.306;43.984;2022-12-20T01:18:39;99932.38;;;-5.32;87.37
74635;BME280;63140;56.306;43.984;2022-12-20T01:21:08;99925.34;;;-5.27;86.53
74635;BME280;63140;56.306;43.984;2022-12-20T01:23:34;99922.50;;;-5.25;86.82
74635;BME280;63140;56.306;43.984;2022-12-20T01:26:02;99940.84;;;-5.16;86.82
74635;BME280;63140;56.306;43.984;2022-12-20T01:28:30;99924.25;;;-5.10;86.76
74635;BME280;63140;56.306;43.984;2022-12-20T01:30:56;99929.41;;;-5.10;86.58
74635;BME280;63140;56.306;43.984;2022-12-20T01:33:22;99931.25;;;-5.11;86.91
74635;BME280;63140;56.306;43.984;2022-12-20T01:36:00;99929.13;;;-5.04;87.06
74635;BME280;63140;56.306;43.984;2022-12-20T01:38:26;99927.84;;;-5.01;86.76
74635;BME280;63140;56.306;43.984;2022-12-20T01:40:53;99926.50;;;-4.93;86.50
74635;BME280;63140;56.306;43.984;2022-12-20T01:43:20;99930.06;;;-4.84;86.72
74635;BME280;63140;56.306;43.984;2022-12-20T01:45:46;99930.03;;;-4.79;86.55
74635;BME280;63140;56.306;43.984;2022-12-20T01:48:16;99933.09;;;-4.72;86.55
74635;BME280;63140;56.306;43.984;2022-12-20T01:50:45;99936.22;;;-4.75;86.77
74635;BME280;63140;56.306;43.984;2022-12-20T01:53:14;99935.09;;;-4.64;86.66
74635;BME280;63140;56.306;43.984;2022-12-20T01:55:41;99945.47;;;-4.64;87.05
74635;BME280;63140;56.306;43.984;2022-12-20T01:58:09;99948.28;;;-4.60;86.63
74635;BME280;63140;56.306;43.984;2022-12-20T02:00:37;99947.44;;;-4.50;86.92
74635;BME280;63140;56.306;43.984;2022-12-20T02:03:09;99947.44;;;-4.50;87.23
74635;BME280;63140;56.306;43.984;2022-12-20T02:05:41;99941.19;;;-4.44;86.87
74635;BME280;63140;56.306;43.984;2022-12-20T02:08:11;99940.38;;;-4.40;87.20
74635;BME280;63140;56.306;43.984;2022-12-20T02:16:22;99944.16;;;-4.27;87.21
74635;BME280;63140;56.306;43.984;2022-12-20T02:25:13;99951.88;;;-4.22;88.40
74635;BME280;63140;56.306;43.984;2022-12-20T02:28:02;99933.72;;;-4.17;87.68
74635;BME280;63140;56.306;43.984;2022-12-20T02:30:37;99952.81;;;-4.08;87.42
74635;BME280;63140;56.306;43.984;2022-12-20T02:33:06;99934.41;;;-4.11;87.94
74635;BME280;63140;56.306;43.984;2022-12-20T02:35:35;99936.25;;;-4.12;87.51
74635;BME280;63140;56.306;43.984;2022-12-20T02:38:23;99942.94;;;-4.05;87.47
74635;BME280;63140;56.306;43.984;2022-12-20T02:40:51;99950.78;;;-4.11;87.29
74635;BME280;63140;56.306;43.984;2022-12-20T02:43:20;99952.41;;;-4.20;87.79
74635;BME280;63140;56.306;43.984;2022-12-20T02:46:06;99959.66;;;-4.22;88.51
74635;BME280;63140;56.306;43.984;2022-12-20T02:48:35;99948.22;;;-4.16;88.68
74635;BME280;63140;56.306;43.984;2022-12-20T02:51:04;99946.53;;;-4.01;87.92
74635;BME280;63140;56.306;43.984;2022-12-20T02:53:31;99949.13;;;-4.01;87.27
74635;BME280;63140;56.306;43.984;2022-12-20T02:56:13;99943.09;;;-3.97;87.87
74635;BME280;63140;56.306;43.984;2022-12-20T02:58:52;99954.00;;;-3.95;87.92
74635;BME280;63140;56.306;43.984;2022-12-20T03:01:30;99958.31;;;-3.85;88.00
74635;BME280;63140;56.306;43.984;2022-12-20T03:03:57;99965.88;;;-3.89;87.35
74635;BME280;63140;56.306;43.984;2022-12-20T03:06:23;99953.34;;;-3.81;87.48
74635;BME280;63140;56.306;43.984;2022-12-20T03:08:49;99945.72;;;-3.73;86.61
74635;BME280;63140;56.306;43.984;2022-12-20T03:11:16;99948.84;;;-3.71;86.97
74635;BME280;63140;56.306;43.984;2022-12-20T03:13:42;99953.59;;;-3.78;86.67
74635;BME280;63140;56.306;43.984;2022-12-20T03:16:08;99958.72;;;-3.73;86.55
74635;BME280;63140;56.306;43.984;2022-12-20T03:18:36;99954.63;;;-3.79;86.71
74635;BME280;63140;56.306;43.984;2022-12-20T03:21:02;99948.81;;;-3.95;86.45
74635;BME280;63140;56.306;43.984;2022-12-20T03:23:28;99962.22;;;-3.88;87.03
74635;BME280;63140;56.306;43.984;2022-12-20T03:25:54;99949.03;;;-3.91;86.80
74635;BME280;63140;56.306;43.984;2022-12-20T03:28:40;99946.38;;;-3.86;87.11
74635;BME280;63140;56.306;43.984;2022-12-20T03:31:08;99955.19;;;-3.82;86.64
74635;BME280;63140;56.306;43.984;2022-12-20T03:33:42;99958.41;;;-3.95;86.92
74635;BME280;63140;56.306;43.984;2022-12-20T03:36:08;99949.56;;;-3.94;86.41
74635;BME280;63140;56.306;43.984;2022-12-20T03:38:33;99945.84;;;-3.83;86.29
74635;BME280;63140;56.306;43.984;2022-12-20T03:40:59;99950.47;;;-3.80;85.85
74635;BME280;63140;56.306;43.984;2022-12-20T03:43:25;99950.31;;;-3.89;86.33
74635;BME280;63140;56.306;43.984;2022-12-20T03:45:51;99943.31;;;-3.88;85.69
74635;BME280;63140;56.306;43.984;2022-12-20T03:48:18;99951.19;;;-3.98;86.12
74635;BME280;63140;56.306;43.984;2022-12-20T03:50:44;99955.31;;;-3.97;86.26
74635;BME280;63140;56.306;43.984;2022-12-20T03:53:09;99951.13;;;-3.93;86.58
74635;BME280;63140;56.306;43.984;2022-12-20T03:55:35;99959.94;;;-3.94;85.88
74635;BME280;63140;56.306;43.984;2022-12-20T03:58:02;99950.34;;;-3.94;85.91
74635;BME280;63140;56.306;43.984;2022-12-20T04:00:34;99951.69;;;-3.96;86.26
74635;BME280;63140;56.306;43.984;2022-12-20T04:03:19;99944.16;;;-3.98;85.98
74635;BME280;63140;56.306;43.984;2022-12-20T04:05:45;99946.50;;;-3.96;85.77
74635;BME280;63140;56.306;43.984;2022-12-20T04:08:11;99940.47;;;-3.92;85.55
74635;BME280;63140;56.306;43.984;2022-12-20T04:10:38;99943.53;;;-3.85;85.14
74635;BME280;63140;56.306;43.984;2022-12-20T04:13:28;99940.66;;;-3.83;84.83
74635;BME280;63140;56.306;43.984;2022-12-20T04:15:53;99941.75;;;-3.89;84.95
74635;BME280;63140;56.306;43.984;2022-12-20T04:18:21;99946.94;;;-3.89;85.28
74635;BME280;63140;56.306;43.984;2022-12-20T04:20:51;99953.16;;;-3.90;84.98
74635;BME280;63140;56.306;43.984;2022-12-20T04:23:22;99961.00;;;-3.95;84.34
74635;BME280;63140;56.306;43.984;2022-12-20T04:25:49;99949.56;;;-3.94;84.59
74635;BME280;63140;56.306;43.984;2022-12-20T04:28:16;99941.09;;;-4.00;84.17
74635;BME280;63140;56.306;43.984;2022-12-20T04:30:42;99951.31;;;-4.14;85.14
74635;BME280;63140;56.306;43.984;2022-12-20T04:33:08;99953.38;;;-4.11;84.64
74635;BME280;63140;56.306;43.984;2022-12-20T04:35:36;99949.66;;;-4.04;84.25
74635;BME280;63140;56.306;43.984;2022-12-20T04:38:02;99950.22;;;-4.08;84.52
74635;BME280;63140;56.306;43.984;2022-12-20T04:40:28;99951.78;;;-4.06;83.85
74635;BME280;63140;56.306;43.984;2022-12-20T04:42:56;99948.22;;;-4.16;83.90
74635;BME280;63140;56.306;43.984;2022-12-20T04:45:22;99961.94;;;-4.10;83.88
74635;BME280;63140;56.306;43.984;2022-12-20T04:47:50;99955.38;;;-4.02;83.52
74635;BME280;63140;56.306;43.984;2022-12-20T04:50:22;99958.88;;;-4.17;83.25
74635;BME280;63140;56.306;43.984;2022-12-20T04:52:48;99955.66;;;-4.38;83.32
74635;BME280;63140;56.306;43.984;2022-12-20T04:55:37;99964.47;;;-4.39;83.86
74635;BME280;63140;56.306;43.984;2022-12-20T04:58:03;99949.44;;;-4.42;83.39
74635;BME280;63140;56.306;43.984;2022-12-20T05:00:29;99954.63;;;-4.37;83.24
74635;BME280;63140;56.306;43.984;2022-12-20T05:03:04;99951.09;;;-4.51;83.50
74635;BME280;63140;56.306;43.984;2022-12-20T05:05:30;99949.56;;;-4.52;83.15
74635;BME280;63140;56.306;43.984;2022-12-20T05:07:57;99968.41;;;-4.47;83.12
74635;BME280;63140;56.306;43.984;2022-12-20T05:10:24;99947.97;;;-4.53;82.68
74635;BME280;63140;56.306;43.984;2022-12-20T05:12:52;99962.28;;;-4.56;82.82
74635;BME280;63140;56.306;43.984;2022-12-20T05:15:29;99946.28;;;-4.68;82.46
74635;BME280;63140;56.306;43.984;2022-12-20T05:17:55;99958.47;;;-4.74;82.23
74635;BME280;63140;56.306;43.984;2022-12-20T05:20:30;99960.34;;;-4.80;82.55
74635;BME280;63140;56.306;43.984;2022-12-20T05:22:58;99957.50;;;-4.83;82.14
74635;BME280;63140;56.306;43.984;2022-12-20T05:25:47;99958.03;;;-4.86;81.94
74635;BME280;63140;56.306;43.984;2022-12-20T05:28:33;99967.41;;;-4.95;82.03
74635;BME280;63140;56.306;43.984;2022-12-20T05:30:59;99959.63;;;-4.95;81.52
74635;BME280;63140;56.306;43.984;2022-12-20T05:33:26;99950.38;;;-5.01;81.80
74635;BME280;63140;56.306;43.984;2022-12-20T05:35:53;99958.34;;;-4.93;81.59
74635;BME280;63140;56.306;43.984;2022-12-20T05:38:20;99954.50;;;-5.00;81.68
74635;BME280;63140;56.306;43.984;2022-12-20T05:40:47;99956.03;;;-4.99;81.76
74635;BME280;63140;56.306;43.984;2022-12-20T05:43:16;99965.81;;;-4.86;81.28
74635;BME280;63140;56.306;43.984;2022-12-20T05:45:49;99964.81;;;-4.90;82.36
74635;BME280;63140;56.306;43.984;2022-12-20T05:48:19;99967.34;;;-4.85;81.07
74635;BME280;63140;56.306;43.984;2022-12-20T05:50:46;99963.69;;;-4.79;81.26
74635;BME280;63140;56.306;43.984;2022-12-20T05:53:32;99961.06;;;-4.69;80.71
74635;BME280;63140;56.306;43.984;2022-12-20T05:56:04;99954.09;;;-4.73;81.07
74635;BME280;63140;56.306;43.984;2022-12-20T05:58:35;99955.34;;;-4.66;80.63
74635;BME280;63140;56.306;43.984;2022-12-20T06:01:05;99963.13;;;-4.71;80.72
74635;BME280;63140;56.306;43.984;2022-12-20T06:03:36;99969.34;;;-4.67;80.70
74635;BME280;63140;56.306;43.984;2022-12-20T06:06:06;99968.25;;;-4.61;80.91
74635;BME280;63140;56.306;43.984;2022-12-20T06:08:32;99960.53;;;-4.66;80.18
74635;BME280;63140;56.306;43.984;2022-12-20T06:11:01;99967.94;;;-4.54;80.26
74635;BME280;63140;56.306;43.984;2022-12-20T06:13:32;99966.44;;;-4.60;80.26
74635;BME280;63140;56.306;43.984;2022-12-20T06:15:58;99963.88;;;-4.65;80.08
74635;BME280;63140;56.306;43.984;2022-12-20T06:18:25;99969.25;;;-4.57;81.17
74635;BME280;63140;56.306;43.984;2022-12-20T06:20:55;99969.19;;;-4.46;80.59
74635;BME280;63140;56.306;43.984;2022-12-20T06:23:23;99959.44;;;-4.60;80.44
74635;BME280;63140;56.306;43.984;2022-12-20T06:26:04;99965.63;;;-4.56;80.44
74635;BME280;63140;56.306;43.984;2022-12-20T06:28:35;99969.25;;;-4.57;80.54
74635;BME280;63140;56.306;43.984;2022-12-20T06:31:10;99968.69;;;-4.48;80.35
74635;BME280;63140;56.306;43.984;2022-12-20T06:33:40;99970.25;;;-4.47;79.78
74635;BME280;63140;56.306;43.984;2022-12-20T06:36:06;99969.97;;;-4.46;80.08
74635;BME280;63140;56.306;43.984;2022-12-20T06:38:32;99958.28;;;-4.43;79.85
74635;BME280;63140;56.306;43.984;2022-12-20T06:40:58;99970.94;;;-4.37;79.61
74635;BME280;63140;56.306;43.984;2022-12-20T06:43:26;99960.84;;;-4.38;78.94
74635;BME280;63140;56.306;43.984;2022-12-20T06:45:52;99966.03;;;-4.38;78.97
74635;BME280;63140;56.306;43.984;2022-12-20T06:48:18;99970.19;;;-4.42;79.26
74635;BME280;63140;56.306;43.984;2022-12-20T06:50:47;99963.41;;;-4.33;79.31
74635;BME280;63140;56.306;43.984;2022-12-20T06:53:14;99954.91;;;-4.44;79.27
74635;BME280;63140;56.306;43.984;2022-12-20T06:55:41;99961.31;;;-4.31;79.75
74635;BME280;63140;56.306;43.984;2022-12-20T06:58:07;99951.03;;;-4.41;78.69
74635;BME280;63140;56.306;43.984;2022-12-20T07:00:36;99944.91;;;-4.56;79.77
74635;BME280;63140;56.306;43.984;2022-12-20T07:03:02;99950.81;;;-4.50;79.67
74635;BME280;63140;56.306;43.984;2022-12-20T07:05:28;99948.03;;;-4.59;79.70
74635;BME280;63140;56.306;43.984;2022-12-20T07:07:53;99953.34;;;-4.40;79.51
74635;BME280;63140;56.306;43.984;2022-12-20T07:10:19;99947.06;;;-4.34;79.85
74635;BME280;63140;56.306;43.984;2022-12-20T07:12:46;99946.78;;;-4.32;79.48
74635;BME280;63140;56.306;43.984;2022-12-20T07:15:12;99958.59;;;-4.16;80.22
74635;BME280;63140;56.306;43.984;2022-12-20T07:17:38;99949.28;;;-4.22;78.89
74635;BME280;63140;56.306;43.984;2022-12-20T07:20:04;99942.13;;;-4.30;78.97
74635;BME280;63140;56.306;43.984;2022-12-20T07:22:32;99955.16;;;-4.40;79.76
74635;BME280;63140;56.306;43.984;2022-12-20T07:24:59;99942.72;;;-4.43;79.73
74635;BME280;63140;56.306;43.984;2022-12-20T07:27:24;99946.84;;;-4.37;79.89
74635;BME280;63140;56.306;43.984;2022-12-20T07:29:50;99934.09;;;-4.34;80.56
74635;BME280;63140;56.306;43.984;2022-12-20T07:32:16;99939.25;;;-4.28;79.61
74635;BME280;63140;56.306;43.984;2022-12-20T07:34:42;99946.31;;;-4.34;79.52
74635;BME280;63140;56.306;43.984;2022-12-20T07:37:08;99937.38;;;-4.23;79.33
74635;BME280;63140;56.306;43.984;2022-12-20T07:39:34;99944.66;;;-4.25;79.69
74635;BME280;63140;56.306;43.984;2022-12-20T07:42:00;99937.94;;;-4.26;80.10
74635;BME280;63140;56.306;43.984;2022-12-20T07:44:25;99934.28;;;-4.25;80.24
74635;BME280;63140;56.306;43.984;2022-12-20T07:46:52;99934.88;;;-4.33;80.59
74635;BME280;63140;56.306;43.984;2022-12-20T07:49:18;99926.03;;;-4.27;80.22
74635;BME280;63140;56.306;43.984;2022-12-20T07:51:47;99921.19;;;-4.10;80.38
74635;BME280;63140;56.306;43.984;2022-12-20T07:54:20;99919.66;;;-4.11;80.42
74635;BME280;63140;56.306;43.984;2022-12-20T07:56:50;99924.50;;;-4.04;80.21
74635;BME280;63140;56.306;43.984;2022-12-20T07:59:22;99917.28;;;-4.07;80.57
74635;BME280;63140;56.306;43.984;2022-12-20T08:01:48;99921.13;;;-4.04;80.45
74635;BME280;63140;56.306;43.984;2022-12-20T08:04:20;99912.34;;;-4.03;80.82
74635;BME280;63140;56.306;43.984;2022-12-20T08:06:49;99915.47;;;-4.06;81.49
74635;BME280;63140;56.306;43.984;2022-12-20T08:09:18;99903.84;;;-4.14;81.54
74635;BME280;63140;56.306;43.984;2022-12-20T08:11:46;99912.53;;;-4.29;81.48
74635;BME280;63140;56.306;43.984;2022-12-20T08:14:13;99902.00;;;-4.38;82.30
74635;BME280;63140;56.306;43.984;2022-12-20T08:16:40;99902.63;;;-4.22;82.22
74635;BME280;63140;56.306;43.984;2022-12-20T08:19:06;99904.50;;;-4.27;82.17
74635;BME280;63140;56.306;43.984;2022-12-20T08:21:32;99907.31;;;-4.24;82.43
74635;BME280;63140;56.306;43.984;2022-12-20T08:23:57;99900.84;;;-4.26;82.75
74635;BME280;63140;56.306;43.984;2022-12-20T08:26:23;99907.28;;;-4.19;82.48
74635;BME280;63140;56.306;43.984;2022-12-20T08:28:49;99907.78;;;-4.17;82.38
74635;BME280;63140;56.306;43.984;2022-12-20T08:31:15;99905.19;;;-4.17;83.09
74635;BME280;63140;56.306;43.984;2022-12-20T08:33:41;99909.03;;;-4.14;82.80
74635;BME280;63140;56.306;43.984;2022-12-20T08:36:09;99910.38;;;-4.17;83.00
74635;BME280;63140;56.306;43.984;2022-12-20T08:38:36;99904.19;;;-4.21;83.35
74635;BME280;63140;56.306;43.984;2022-12-20T08:41:03;99897.66;;;-4.18;83.24
74635;BME280;63140;56.306;43.984;2022-12-20T08:43:31;99913.53;;;-4.25;83.38
74635;BME280;63140;56.306;43.984;2022-12-20T08:45:57;99901.03;;;-4.18;83.51
74635;BME280;63140;56.306;43.984;2022-12-20T08:48:23;99897.22;;;-4.25;84.25
74635;BME280;63140;56.306;43.984;2022-12-20T08:50:56;99892.59;;;-4.04;83.70
74635;BME280;63140;56.306;43.984;2022-12-20T08:53:23;99883.28;;;-4.05;83.64
74635;BME280;63140;56.306;43.984;2022-12-20T08:55:49;99889.47;;;-4.01;83.66
74635;BME280;63140;56.306;43.984;2022-12-20T08:58:15;99882.34;;;-4.15;84.36
74635;BME280;63140;56.306;43.984;2022-12-20T09:00:41;99867.88;;;-3.97;84.05
74635;BME280;63140;56.306;43.984;2022-12-20T09:03:06;99872.09;;;-4.01;83.99
74635;BME280;63140;56.306;43.984;2022-12-20T09:05:34;99875.63;;;-3.92;83.81
74635;BME280;63140;56.306;43.984;2022-12-20T09:08:00;99876.31;;;-3.86;83.50
74635;BME280;63140;56.306;43.984;2022-12-20T09:10:26;99878.91;;;-3.86;83.79
74635;BME280;63140;56.306;43.984;2022-12-20T09:12:52;99869.06;;;-3.84;84.13
74635;BME280;63140;56.306;43.984;2022-12-20T09:15:17;99864.41;;;-3.87;84.23
74635;BME280;63140;56.306;43.984;2022-12-20T09:17:43;99866.56;;;-3.94;84.63
74635;BME280;63140;56.306;43.984;2022-12-20T09:20:09;99870.44;;;-3.92;84.42
74635;BME280;63140;56.306;43.984;2022-12-20T09:22:35;99862.97;;;-3.98;84.84
74635;BME280;63140;56.306;43.984;2022-12-20T09:25:01;99852.91;;;-4.00;84.78
74635;BME280;63140;56.306;43.984;2022-12-20T09:27:28;99854.00;;;-3.82;85.01
74635;BME280;63140;56.306;43.984;2022-12-20T09:29:54;99860.84;;;-3.91;85.37
74635;BME280;63140;56.306;43.984;2022-12-20T09:32:20;99849.63;;;-3.87;84.78
74635;BME280;63140;56.306;43.984;2022-12-20T09:34:45;99856.50;;;-3.77;84.66
74635;BME280;63140;56.306;43.984;2022-12-20T09:37:12;99850.34;;;-3.81;84.88
74635;BME280;63140;56.306;43.984;2022-12-20T09:39:38;99842.91;;;-3.69;84.75
74635;BME280;63140;56.306;43.984;2022-12-20T09:42:07;99847.34;;;-3.69;84.37
74635;BME280;63140;56.306;43.984;2022-12-20T09:44:39;99848.81;;;-3.82;84.74
74635;BME280;63140;56.306;43.984;2022-12-20T09:47:19;99842.06;;;-3.83;84.88
74635;BME280;63140;56.306;43.984;2022-12-20T09:49:50;99848.25;;;-3.79;85.07
74635;BME280;63140;56.306;43.984;2022-12-20T09:58:18;99827.50;;;-3.60;84.90
74635;BME280;63140;56.306;43.984;2022-12-20T10:00:48;99835.94;;;-3.49;84.61
74635;BME280;63140;56.306;43.984;2022-12-20T10:03:29;99818.28;;;-3.47;84.79
74635;BME280;63140;56.306;43.984;2022-12-20T10:06:04;99820.44;;;-3.36;84.63
74635;BME280;63140;56.306;43.984;2022-12-20T10:09:01;99818.38;;;-3.20;83.95
74635;BME280;63140;56.306;43.984;2022-12-20T10:16:45;99804.78;;;-2.79;82.99
74635;BME280;63140;56.306;43.984;2022-12-20T10:27:43;99784.13;;;-2.70;82.02
74635;BME280;63140;56.306;43.984;2022-12-20T10:30:23;99790.66;;;-2.73;82.04
74635;BME280;63140;56.306;43.984;2022-12-20T10:32:52;99787.38;;;-2.65;82.01
74635;BME280;63140;56.306;43.984;2022-12-20T10:35:30;99784.78;;;-2.65;81.84
74635;BME280;63140;56.306;43.984;2022-12-20T10:38:04;99775.84;;;-2.58;82.15
74635;BME280;63140;56.306;43.984;2022-12-20T10:40:40;99777.38;;;-2.57;81.88
74635;BME280;63140;56.306;43.984;2022-12-20T10:43:27;99771.22;;;-2.61;81.56
74635;BME280;63140;56.306;43.984;2022-12-20T10:46:03;99773.50;;;-2.60;81.63
74635;BME280;63140;56.306;43.984;2022-12-20T10:48:36;99751.94;;;-2.60;82.09
74635;BME280;63140;56.306;43.984;2022-12-20T10:53:35;99753.91;;;-2.52;81.98
74635;BME280;63140;56.306;43.984;2022-12-20T10:56:28;99746.00;;;-2.47;81.34
74635;BME280;63140;56.306;43.984;2022-12-20T11:01:30;99740.59;;;-2.37;81.53
74635;BME280;63140;56.306;43.984;2022-12-20T11:09:22;99736.75;;;-2.26;80.78
74635;BME280;63140;56.306;43.984;2022-12-20T11:14:33;99743.88;;;-2.45;81.11
74635;BME280;63140;56.306;43.984;2022-12-20T11:17:04;99729.31;;;-2.46;81.47
74635;BME280;63140;56.306;43.984;2022-12-20T11:22:37;99736.66;;;-2.34;81.52
74635;BME280;63140;56.306;43.984;2022-12-20T11:30:41;99718.53;;;-2.26;81.58
74635;BME280;63140;56.306;43.984;2022-12-20T11:38:28;99713.03;;;-2.10;81.09
74635;BME280;63140;56.306;43.984;2022-12-20T11:49:14;99696.16;;;-1.99;80.78
74635;BME280;63140;56.306;43.984;2022-12-20T11:51:47;99692.69;;;-2.08;80.67
74635;BME280;63140;56.306;43.984;2022-12-20T11:54:40;99696.25;;;-2.04;81.20
74635;BME280;63140;56.306;43.984;2022-12-20T11:57:13;99684.88;;;-2.08;80.48
74635;BME280;63140;56.306;43.984;2022-12-20T12:00:00;99685.47;;;-2.11;80.74
74635;BME280;63140;56.306;43.984;2022-12-20T12:03:17;99680.66;;;-2.18;81.17
74635;BME280;63140;56.306;43.984;2022-12-20T12:05:47;99672.38;;;-2.20;80.78
74635;BME280;63140;56.306;43.984;2022-12-20T12:08:40;99682.69;;;-2.15;81.06
74635;BME280;63140;56.306;43.984;2022-12-20T12:11:17;99672.78;;;-2.27;80.64
74635;BME280;63140;56.306;43.984;2022-12-20T12:13:44;99682.81;;;-2.34;80.85
74635;BME280;63140;56.306;43.984;2022-12-20T12:16:38;99674.53;;;-2.36;81.69
74635;BME280;63140;56.306;43.984;2022-12-20T12:19:10;99672.28;;;-2.29;81.45
74635;BME280;63140;56.306;43.984;2022-12-20T12:21:48;99665.44;;;-2.25;81.51
74635;BME280;63140;56.306;43.984;2022-12-20T12:24:30;99661.44;;;-2.31;81.25
74635;BME280;63140;56.306;43.984;2022-12-20T12:26:59;99657.19;;;-2.27;81.48
74635;BME280;63140;56.306;43.984;2022-12-20T12:29:27;99659.69;;;-2.35;81.40
74635;BME280;63140;56.306;43.984;2022-12-20T12:37:44;99650.19;;;-2.68;81.96
74635;BME280;63140;56.306;43.984;2022-12-20T12:45:59;99641.44;;;-2.72;82.30
74635;BME280;63140;56.306;43.984;2022-12-20T12:48:37;99649.22;;;-2.72;82.44
74635;BME280;63140;56.306;43.984;2022-12-20T12:51:05;99649.16;;;-2.67;82.05
74635;BME280;63140;56.306;43.984;2022-12-20T12:53:35;99639.13;;;-2.59;82.03
74635;BME280;63140;56.306;43.984;2022-12-20T13:01:53;99642.56;;;-3.05;83.55
74635;BME280;63140;56.306;43.984;2022-12-20T13:04:26;99640.06;;;-3.10;82.92
74635;BME280;63140;56.306;43.984;2022-12-20T13:07:02;99631.78;;;-3.13;82.80
74635;BME280;63140;56.306;43.984;2022-12-20T13:09:47;99633.63;;;-3.13;82.52
74635;BME280;63140;56.306;43.984;2022-12-20T13:18:00;99618.59;;;-3.16;82.95
74635;BME280;63140;56.306;43.984;2022-12-20T13:20:31;99617.56;;;-3.15;82.99
74635;BME280;63140;56.306;43.984;2022-12-20T13:23:11;99622.75;;;-3.29;83.24
74635;BME280;63140;56.306;43.984;2022-12-20T13:25:44;99617.53;;;-3.29;83.08
74635;BME280;63140;56.306;43.984;2022-12-20T13:33:45;99609.25;;;-3.31;82.41
74635;BME280;63140;56.306;43.984;2022-12-20T13:38:53;99602.81;;;-3.33;82.22
74635;BME280;63140;56.306;43.984;2022-12-20T13:47:30;99594.06;;;-3.24;82.17
74635;BME280;63140;56.306;43.984;2022-12-20T13:50:00;99596.94;;;-3.39;82.53
74635;BME280;63140;56.306;43.984;2022-12-20T13:52:31;99585.78;;;-3.40;82.66
74635;BME280;63140;56.306;43.984;2022-12-20T13:55:03;99594.06;;;-3.38;82.87
74635;BME280;63140;56.306;43.984;2022-12-20T13:57:41;99587.91;;;-3.28;82.97
74635;BME280;63140;56.306;43.984;2022-12-20T14:00:18;99586.38;;;-3.29;82.92
74635;BME280;63140;56.306;43.984;2022-12-20T14:02:47;99591.47;;;-3.24;82.76
74635;BME280;63140;56.306;43.984;2022-12-20T14:05:30;99586.78;;;-3.22;83.01
74635;BME280;63140;56.306;43.984;2022-12-20T14:08:17;99575.91;;;-3.24;82.96
74635;BME280;63140;56.306;43.984;2022-12-20T14:10:44;99585.81;;;-3.12;83.11
74635;BME280;63140;56.306;43.984;2022-12-20T14:13:26;99576.59;;;-3.18;82.89
74635;BME280;63140;56.306;43.984;2022-12-20T14:15:53;99573.13;;;-3.14;83.06
74635;BME280;63140;56.306;43.984;2022-12-20T14:18:23;99577.16;;;-3.07;83.23
74635;BME280;63140;56.306;43.984;2022-12-20T14:21:01;99584.75;;;-2.97;83.35
74635;BME280;63140;56.306;43.984;2022-12-20T14:23:45;99575.72;;;-2.86;83.01
74635;BME280;63140;56.306;43.984;2022-12-20T14:26:18;99574.75;;;-2.76;82.39
74635;BME280;63140;56.306;43.984;2022-12-20T14:29:10;99580.97;;;-2.77;82.23
74635;BME280;63140;56.306;43.984;2022-12-20T14:31:40;99575.41;;;-2.84;81.82
74635;BME280;63140;56.306;43.984;2022-12-20T14:36:41;99564.94;;;-2.93;81.79
74635;BME280;63140;56.306;43.984;2022-12-20T14:39:27;99562.03;;;-2.92;82.14
74635;BME280;63140;56.306;43.984;2022-12-20T14:41:59;99560.13;;;-2.86;82.05
74635;BME280;63140;56.306;43.984;2022-12-20T14:44:27;99566.00;;;-2.80;82.22
74635;BME280;63140;56.306;43.984;2022-12-20T14:49:28;99572.72;;;-2.93;81.92
74635;BME280;63140;56.306;43.984;2022-12-20T14:54:59;99568.09;;;-2.82;81.58
74635;BME280;63140;56.306;43.984;2022-12-20T15:16:17;99539.91;;;-2.89;80.97